Portales, NM (88130)

3:19 AM MDT on April 29, 2017 (GMT -0600)
ENMU | | Change Station

Elev 4026 ft 34.18 °N, 103.35 °W | Updated 4 minutes ago

Overcast
Overcast
46.7 °F
Feels Like 42 °F
N
9.0
Wind Variable Wind from NNW
Gusts 16.0 mph

Today
High -- | Low -- °F
--% Chance of Precip.
Yesterday
High -- | Low -- °F
Precip. -- in
Pressure 29.62 in
Visibility 10.0 miles
Clouds Mostly Cloudy 1100 ft
Overcast 3500 ft
Windchill 42 °F
Dew Point 41 °F
Humidity 79%
Rainfall 0.00 in
Snow Depth Not available.
6:05 AM 7:36 PM
Waxing Crescent, 12% visible
METAR KCVS 290858Z AUTO 01016G27KT 10SM BKN011 OVC035 07/07 A2974 RMK AO2 PK WND 36027/02 SLP029 T00700070 53004 $
Pressure 29.62 in
Visibility 10.0 miles
Clouds Mostly Cloudy 1100 ft
Overcast 3500 ft
Windchill 42 °F
Dew Point 41 °F
Humidity 79%
Rainfall 0.00 in
Snow Depth Not available.
6:05 AM 7:36 PM
Waxing Crescent, 12% visible
METAR KCVS 290858Z AUTO 01016G27KT 10SM BKN011 OVC035 07/07 A2974 RMK AO2 PK WND 36027/02 SLP029 T00700070 53004 $

Get Severe Weather Alerts

Thanks for signing up!

Be on the lookout for a verification email in your inbox.

You'll start receiving the daily forecast at 8 AM.

×

10-Day Weather Forecast

Almanac

Astronomy

Apr. 29, 2017 Rise Set
Actual Time
Civil Twilight
Nautical Twilight
Astronomical Twilight
Moon
Length of Visible Light
Length of Day
Tomorrow will be .
, % of the Moon is Illuminated

Today's Extremes

State Highs State Lows

Community

WunderPhotos

WunderBlog® & News

Nearby

Air Quality

  Air Quality AQ Index Pollutant
Not available.

Snow Depth

Station Depth Elevation

Earthquake Activity

City Distance Mag. Time & Date
Minimum magnitude displayed is 2.5.

Coastal Water Temperatures

Place Temperature

Stations

Nearby Weather Stations

Station Location Temp. Windchill Dew Point Humidity Wind Precip. Elev Updated Type
                   

Watches & Warnings

There are currently no watches in effect.